sensor_id;sensor_type;location;lat;lon;timestamp;P1;durP1;ratioP1;P2;durP2;ratioP2
53267;SDS011;39156;51.176;6.738;2023-03-20T00:01:15;41.50;;;38.65;;
53267;SDS011;39156;51.176;6.738;2023-03-20T00:03:45;44.55;;;41.75;;
53267;SDS011;39156;51.176;6.738;2023-03-20T00:06:30;41.42;;;38.78;;
53267;SDS011;39156;51.176;6.738;2023-03-20T00:08:56;42.28;;;39.58;;
53267;SDS011;39156;51.176;6.738;2023-03-20T00:13:53;44.17;;;41.38;;
53267;SDS011;39156;51.176;6.738;2023-03-20T00:16:22;43.47;;;40.70;;
53267;SDS011;39156;51.176;6.738;2023-03-20T00:18:53;41.95;;;39.33;;
53267;SDS011;39156;51.176;6.738;2023-03-20T00:23:45;42.10;;;39.47;;
53267;SDS011;39156;51.176;6.738;2023-03-20T00:26:15;41.25;;;38.78;;
53267;SDS011;39156;51.176;6.738;2023-03-20T00:28:44;43.30;;;40.70;;
53267;SDS011;39156;51.176;6.738;2023-03-20T00:31:24;41.75;;;39.15;;
53267;SDS011;39156;51.176;6.738;2023-03-20T00:33:54;42.58;;;39.97;;
53267;SDS011;39156;51.176;6.738;2023-03-20T00:36:23;43.78;;;41.08;;
53267;SDS011;39156;51.176;6.738;2023-03-20T00:38:49;43.15;;;40.45;;
53267;SDS011;39156;51.176;6.738;2023-03-20T00:41:29;43.22;;;40.30;;
53267;SDS011;39156;51.176;6.738;2023-03-20T00:44:21;41.90;;;39.30;;
53267;SDS011;39156;51.176;6.738;2023-03-20T00:46:52;41.55;;;38.95;;
53267;SDS011;39156;51.176;6.738;2023-03-20T00:49:22;42.58;;;39.97;;
53267;SDS011;39156;51.176;6.738;2023-03-20T00:51:54;42.00;;;39.30;;
53267;SDS011;39156;51.176;6.738;2023-03-20T00:54:21;43.53;;;40.83;;
53267;SDS011;39156;51.176;6.738;2023-03-20T00:59:35;42.60;;;39.80;;
53267;SDS011;39156;51.176;6.738;2023-03-20T01:02:05;42.13;;;39.53;;
53267;SDS011;39156;51.176;6.738;2023-03-20T01:04:38;41.35;;;38.75;;
53267;SDS011;39156;51.176;6.738;2023-03-20T01:07:06;41.28;;;38.78;;
53267;SDS011;39156;51.176;6.738;2023-03-20T01:09:37;43.28;;;40.47;;
53267;SDS011;39156;51.176;6.738;2023-03-20T01:12:03;41.47;;;38.88;;
53267;SDS011;39156;51.176;6.738;2023-03-20T01:14:29;40.97;;;38.50;;
53267;SDS011;39156;51.176;6.738;2023-03-20T01:16:55;41.55;;;39.00;;
53267;SDS011;39156;51.176;6.738;2023-03-20T01:19:21;42.50;;;39.90;;
53267;SDS011;39156;51.176;6.738;2023-03-20T01:21:46;44.13;;;41.33;;
53267;SDS011;39156;51.176;6.738;2023-03-20T01:24:12;41.70;;;39.10;;
53267;SDS011;39156;51.176;6.738;2023-03-20T01:26:38;43.30;;;40.40;;
53267;SDS011;39156;51.176;6.738;2023-03-20T01:29:25;42.53;;;39.83;;
53267;SDS011;39156;51.176;6.738;2023-03-20T01:31:51;43.47;;;40.78;;
53267;SDS011;39156;51.176;6.738;2023-03-20T01:34:18;43.63;;;40.92;;
53267;SDS011;39156;51.176;6.738;2023-03-20T01:36:47;43.75;;;40.95;;
53267;SDS011;39156;51.176;6.738;2023-03-20T01:39:18;44.08;;;41.38;;
53267;SDS011;39156;51.176;6.738;2023-03-20T01:41:45;43.15;;;40.45;;
53267;SDS011;39156;51.176;6.738;2023-03-20T01:44:19;44.55;;;41.85;;
53267;SDS011;39156;51.176;6.738;2023-03-20T01:46:50;42.90;;;40.15;;
53267;SDS011;39156;51.176;6.738;2023-03-20T01:51:43;43.60;;;40.80;;
53267;SDS011;39156;51.176;6.738;2023-03-20T01:54:14;43.47;;;40.72;;
53267;SDS011;39156;51.176;6.738;2023-03-20T02:00:06;42.85;;;40.08;;
53267;SDS011;39156;51.176;6.738;2023-03-20T02:02:35;46.25;;;43.35;;
53267;SDS011;39156;51.176;6.738;2023-03-20T02:05:04;42.47;;;39.88;;
53267;SDS011;39156;51.176;6.738;2023-03-20T02:07:34;42.35;;;39.47;;
53267;SDS011;39156;51.176;6.738;2023-03-20T02:10:03;44.42;;;41.63;;
53267;SDS011;39156;51.176;6.738;2023-03-20T02:12:34;44.63;;;41.55;;
53267;SDS011;39156;51.176;6.738;2023-03-20T02:15:00;43.90;;;41.10;;
53267;SDS011;39156;51.176;6.738;2023-03-20T02:17:28;44.40;;;41.63;;
53267;SDS011;39156;51.176;6.738;2023-03-20T02:20:08;44.90;;;42.10;;
53267;SDS011;39156;51.176;6.738;2023-03-20T02:23:02;44.22;;;41.00;;
53267;SDS011;39156;51.176;6.738;2023-03-20T02:26:17;44.78;;;41.95;;
53267;SDS011;39156;51.176;6.738;2023-03-20T02:49:07;45.10;;;42.10;;
53267;SDS011;39156;51.176;6.738;2023-03-20T02:51:55;44.88;;;41.97;;
53267;SDS011;39156;51.176;6.738;2023-03-20T02:54:58;45.20;;;42.30;;
53267;SDS011;39156;51.176;6.738;2023-03-20T02:58:09;44.47;;;41.78;;
53267;SDS011;39156;51.176;6.738;2023-03-20T03:00:45;44.90;;;41.92;;
53267;SDS011;39156;51.176;6.738;2023-03-20T03:03:26;45.70;;;42.75;;
53267;SDS011;39156;51.176;6.738;2023-03-20T03:06:06;45.38;;;42.47;;
53267;SDS011;39156;51.176;6.738;2023-03-20T03:08:55;45.40;;;42.40;;
53267;SDS011;39156;51.176;6.738;2023-03-20T03:11:35;46.13;;;43.05;;
53267;SDS011;39156;51.176;6.738;2023-03-20T03:14:07;45.78;;;42.67;;
53267;SDS011;39156;51.176;6.738;2023-03-20T03:16:43;46.00;;;43.10;;
53267;SDS011;39156;51.176;6.738;2023-03-20T03:19:17;45.50;;;42.60;;
53267;SDS011;39156;51.176;6.738;2023-03-20T03:21:47;46.00;;;42.88;;
53267;SDS011;39156;51.176;6.738;2023-03-20T03:26:58;46.13;;;43.03;;
53267;SDS011;39156;51.176;6.738;2023-03-20T03:29:29;46.22;;;43.22;;
53267;SDS011;39156;51.176;6.738;2023-03-20T03:31:59;46.05;;;43.05;;
53267;SDS011;39156;51.176;6.738;2023-03-20T03:34:28;45.75;;;42.85;;
53267;SDS011;39156;51.176;6.738;2023-03-20T03:36:58;46.42;;;43.33;;
53267;SDS011;39156;51.176;6.738;2023-03-20T03:42:37;46.10;;;43.10;;
53267;SDS011;39156;51.176;6.738;2023-03-20T03:47:47;44.95;;;41.95;;
53267;SDS011;39156;51.176;6.738;2023-03-20T03:52:54;46.70;;;43.60;;
53267;SDS011;39156;51.176;6.738;2023-03-20T03:55:24;45.42;;;42.33;;
53267;SDS011;39156;51.176;6.738;2023-03-20T03:57:57;46.97;;;43.67;;
53267;SDS011;39156;51.176;6.738;2023-03-20T04:00:31;49.17;;;45.75;;
53267;SDS011;39156;51.176;6.738;2023-03-20T04:02:58;46.58;;;43.47;;
53267;SDS011;39156;51.176;6.738;2023-03-20T04:05:26;47.33;;;44.03;;
53267;SDS011;39156;51.176;6.738;2023-03-20T04:07:59;47.22;;;44.13;;
53267;SDS011;39156;51.176;6.738;2023-03-20T04:10:27;46.08;;;43.08;;
53267;SDS011;39156;51.176;6.738;2023-03-20T04:12:53;47.00;;;43.90;;
53267;SDS011;39156;51.176;6.738;2023-03-20T04:15:19;45.95;;;42.90;;
53267;SDS011;39156;51.176;6.738;2023-03-20T04:17:45;47.03;;;43.92;;
53267;SDS011;39156;51.176;6.738;2023-03-20T04:20:11;46.42;;;43.30;;
53267;SDS011;39156;51.176;6.738;2023-03-20T04:25:05;46.30;;;43.40;;
53267;SDS011;39156;51.176;6.738;2023-03-20T04:27:33;47.28;;;44.13;;
53267;SDS011;39156;51.176;6.738;2023-03-20T04:29:59;46.45;;;43.20;;
53267;SDS011;39156;51.176;6.738;2023-03-20T04:32:24;46.22;;;43.33;;
53267;SDS011;39156;51.176;6.738;2023-03-20T04:34:50;44.72;;;41.90;;
53267;SDS011;39156;51.176;6.738;2023-03-20T04:37:16;45.95;;;42.95;;
53267;SDS011;39156;51.176;6.738;2023-03-20T04:39:42;45.00;;;42.00;;
53267;SDS011;39156;51.176;6.738;2023-03-20T04:42:08;45.03;;;42.22;;
53267;SDS011;39156;51.176;6.738;2023-03-20T04:44:34;46.60;;;43.45;;
53267;SDS011;39156;51.176;6.738;2023-03-20T04:46:59;43.55;;;40.85;;
53267;SDS011;39156;51.176;6.738;2023-03-20T04:49:25;45.60;;;42.80;;
53267;SDS011;39156;51.176;6.738;2023-03-20T04:51:51;45.08;;;42.17;;
53267;SDS011;39156;51.176;6.738;2023-03-20T04:54:17;44.40;;;41.60;;
53267;SDS011;39156;51.176;6.738;2023-03-20T04:56:43;44.47;;;41.70;;
53267;SDS011;39156;51.176;6.738;2023-03-20T04:59:09;44.53;;;41.58;;
53267;SDS011;39156;51.176;6.738;2023-03-20T05:01:35;45.03;;;42.22;;
53267;SDS011;39156;51.176;6.738;2023-03-20T05:04:00;46.00;;;43.20;;
53267;SDS011;39156;51.176;6.738;2023-03-20T05:06:26;44.25;;;41.35;;
53267;SDS011;39156;51.176;6.738;2023-03-20T05:08:53;47.35;;;44.45;;
53267;SDS011;39156;51.176;6.738;2023-03-20T05:11:19;46.15;;;43.00;;
53267;SDS011;39156;51.176;6.738;2023-03-20T05:13:44;45.80;;;42.90;;
53267;SDS011;39156;51.176;6.738;2023-03-20T05:16:10;46.10;;;43.20;;
53267;SDS011;39156;51.176;6.738;2023-03-20T05:18:36;44.88;;;41.97;;
53267;SDS011;39156;51.176;6.738;2023-03-20T05:21:02;46.30;;;43.28;;
53267;SDS011;39156;51.176;6.738;2023-03-20T05:23:28;45.47;;;42.25;;
53267;SDS011;39156;51.176;6.738;2023-03-20T05:25:54;47.45;;;44.17;;
53267;SDS011;39156;51.176;6.738;2023-03-20T05:28:20;46.75;;;43.55;;
53267;SDS011;39156;51.176;6.738;2023-03-20T05:30:46;46.80;;;43.70;;
53267;SDS011;39156;51.176;6.738;2023-03-20T05:33:12;47.10;;;44.00;;
53267;SDS011;39156;51.176;6.738;2023-03-20T05:35:38;47.03;;;43.85;;
53267;SDS011;39156;51.176;6.738;2023-03-20T05:38:03;50.55;;;46.97;;
53267;SDS011;39156;51.176;6.738;2023-03-20T05:40:29;49.05;;;45.28;;
53267;SDS011;39156;51.176;6.738;2023-03-20T05:42:55;48.15;;;44.60;;
53267;SDS011;39156;51.176;6.738;2023-03-20T05:45:20;48.13;;;44.83;;
53267;SDS011;39156;51.176;6.738;2023-03-20T05:47:46;49.03;;;45.70;;
53267;SDS011;39156;51.176;6.738;2023-03-20T05:50:11;50.65;;;46.88;;
53267;SDS011;39156;51.176;6.738;2023-03-20T05:52:37;48.63;;;45.30;;
53267;SDS011;39156;51.176;6.738;2023-03-20T05:55:03;47.28;;;44.08;;
53267;SDS011;39156;51.176;6.738;2023-03-20T05:57:29;48.17;;;44.90;;
53267;SDS011;39156;51.176;6.738;2023-03-20T05:59:55;47.20;;;43.95;;
53267;SDS011;39156;51.176;6.738;2023-03-20T06:02:21;46.67;;;43.47;;
53267;SDS011;39156;51.176;6.738;2023-03-20T06:04:47;47.90;;;44.50;;
53267;SDS011;39156;51.176;6.738;2023-03-20T06:07:12;47.50;;;43.90;;
53267;SDS011;39156;51.176;6.738;2023-03-20T06:09:38;48.47;;;45.03;;
53267;SDS011;39156;51.176;6.738;2023-03-20T06:12:04;48.33;;;44.83;;
53267;SDS011;39156;51.176;6.738;2023-03-20T06:14:30;48.05;;;44.85;;
53267;SDS011;39156;51.176;6.738;2023-03-20T06:16:56;47.00;;;43.83;;
53267;SDS011;39156;51.176;6.738;2023-03-20T06:19:22;47.55;;;44.20;;
53267;SDS011;39156;51.176;6.738;2023-03-20T06:21:48;49.72;;;46.22;;
53267;SDS011;39156;51.176;6.738;2023-03-20T06:24:14;47.88;;;44.38;;
53267;SDS011;39156;51.176;6.738;2023-03-20T06:26:40;48.85;;;45.50;;
53267;SDS011;39156;51.176;6.738;2023-03-20T06:29:06;46.60;;;43.38;;
53267;SDS011;39156;51.176;6.738;2023-03-20T06:31:32;45.75;;;42.55;;
53267;SDS011;39156;51.176;6.738;2023-03-20T06:33:58;46.10;;;43.00;;
53267;SDS011;39156;51.176;6.738;2023-03-20T06:36:23;46.63;;;43.42;;
53267;SDS011;39156;51.176;6.738;2023-03-20T06:38:49;46.05;;;42.95;;
53267;SDS011;39156;51.176;6.738;2023-03-20T06:41:15;43.90;;;40.83;;
53267;SDS011;39156;51.176;6.738;2023-03-20T06:43:41;44.88;;;41.70;;
53267;SDS011;39156;51.176;6.738;2023-03-20T06:46:07;47.28;;;43.85;;
53267;SDS011;39156;51.176;6.738;2023-03-20T06:48:33;45.70;;;42.67;;
53267;SDS011;39156;51.176;6.738;2023-03-20T06:50:59;43.40;;;40.60;;
53267;SDS011;39156;51.176;6.738;2023-03-20T06:53:25;42.97;;;40.07;;
53267;SDS011;39156;51.176;6.738;2023-03-20T06:55:51;43.42;;;40.55;;
53267;SDS011;39156;51.176;6.738;2023-03-20T06:58:17;46.92;;;43.85;;
53267;SDS011;39156;51.176;6.738;2023-03-20T07:00:43;44.30;;;41.38;;
53267;SDS011;39156;51.176;6.738;2023-03-20T07:03:09;44.08;;;41.17;;
53267;SDS011;39156;51.176;6.738;2023-03-20T07:05:35;46.25;;;43.25;;
53267;SDS011;39156;51.176;6.738;2023-03-20T07:08:02;43.42;;;40.67;;
53267;SDS011;39156;51.176;6.738;2023-03-20T07:10:28;42.95;;;40.25;;
53267;SDS011;39156;51.176;6.738;2023-03-20T07:12:54;43.40;;;40.80;;
53267;SDS011;39156;51.176;6.738;2023-03-20T07:15:20;40.00;;;37.55;;
53267;SDS011;39156;51.176;6.738;2023-03-20T07:17:46;41.65;;;38.88;;
53267;SDS011;39156;51.176;6.738;2023-03-20T07:20:12;41.20;;;38.30;;
53267;SDS011;39156;51.176;6.738;2023-03-20T07:22:38;40.22;;;37.70;;
53267;SDS011;39156;51.176;6.738;2023-03-20T07:25:06;41.90;;;39.17;;
53267;SDS011;39156;51.176;6.738;2023-03-20T07:27:33;40.58;;;38.10;;
53267;SDS011;39156;51.176;6.738;2023-03-20T07:30:00;44.13;;;41.45;;
53267;SDS011;39156;51.176;6.738;2023-03-20T07:32:26;42.50;;;39.90;;
53267;SDS011;39156;51.176;6.738;2023-03-20T07:34:52;40.25;;;37.55;;
53267;SDS011;39156;51.176;6.738;2023-03-20T07:37:17;40.38;;;38.03;;
53267;SDS011;39156;51.176;6.738;2023-03-20T07:39:43;40.97;;;38.38;;
53267;SDS011;39156;51.176;6.738;2023-03-20T07:42:09;40.65;;;37.97;;
53267;SDS011;39156;51.176;6.738;2023-03-20T07:44:35;42.22;;;39.53;;
53267;SDS011;39156;51.176;6.738;2023-03-20T07:47:00;41.75;;;39.05;;
53267;SDS011;39156;51.176;6.738;2023-03-20T07:49:26;41.03;;;38.22;;
53267;SDS011;39156;51.176;6.738;2023-03-20T07:51:52;41.13;;;38.33;;
53267;SDS011;39156;51.176;6.738;2023-03-20T07:54:18;40.95;;;38.05;;
53267;SDS011;39156;51.176;6.738;2023-03-20T07:56:45;40.67;;;38.03;;
53267;SDS011;39156;51.176;6.738;2023-03-20T07:59:11;42.67;;;39.85;;
53267;SDS011;39156;51.176;6.738;2023-03-20T08:01:37;43.28;;;40.38;;
53267;SDS011;39156;51.176;6.738;2023-03-20T08:04:03;40.88;;;38.28;;
53267;SDS011;39156;51.176;6.738;2023-03-20T08:06:29;41.72;;;38.63;;
53267;SDS011;39156;51.176;6.738;2023-03-20T08:08:55;41.70;;;39.03;;
53267;SDS011;39156;51.176;6.738;2023-03-20T08:11:21;41.40;;;38.72;;
53267;SDS011;39156;51.176;6.738;2023-03-20T08:13:46;39.83;;;37.33;;
53267;SDS011;39156;51.176;6.738;2023-03-20T08:16:12;41.30;;;38.78;;
53267;SDS011;39156;51.176;6.738;2023-03-20T08:18:38;41.40;;;38.83;;
53267;SDS011;39156;51.176;6.738;2023-03-20T08:21:03;42.67;;;39.97;;
53267;SDS011;39156;51.176;6.738;2023-03-20T08:23:30;41.72;;;39.17;;
53267;SDS011;39156;51.176;6.738;2023-03-20T08:25:55;42.13;;;39.53;;
53267;SDS011;39156;51.176;6.738;2023-03-20T08:28:21;40.63;;;38.08;;
53267;SDS011;39156;51.176;6.738;2023-03-20T08:30:47;40.50;;;37.87;;
53267;SDS011;39156;51.176;6.738;2023-03-20T08:33:14;38.35;;;35.97;;
53267;SDS011;39156;51.176;6.738;2023-03-20T08:35:41;41.25;;;37.95;;
53267;SDS011;39156;51.176;6.738;2023-03-20T08:38:08;41.08;;;37.70;;
53267;SDS011;39156;51.176;6.738;2023-03-20T08:40:38;39.33;;;36.45;;
53267;SDS011;39156;51.176;6.738;2023-03-20T08:43:05;39.80;;;37.20;;
53267;SDS011;39156;51.176;6.738;2023-03-20T08:45:32;39.00;;;36.40;;
53267;SDS011;39156;51.176;6.738;2023-03-20T08:47:57;39.85;;;37.17;;
53267;SDS011;39156;51.176;6.738;2023-03-20T08:50:23;39.03;;;36.60;;
53267;SDS011;39156;51.176;6.738;2023-03-20T08:52:49;39.17;;;36.35;;
53267;SDS011;39156;51.176;6.738;2023-03-20T08:55:14;39.03;;;36.47;;
53267;SDS011;39156;51.176;6.738;2023-03-20T08:57:41;38.40;;;35.97;;
53267;SDS011;39156;51.176;6.738;2023-03-20T09:00:07;39.17;;;36.88;;
53267;SDS011;39156;51.176;6.738;2023-03-20T09:02:36;37.95;;;35.55;;
53267;SDS011;39156;51.176;6.738;2023-03-20T09:05:01;38.78;;;36.38;;
53267;SDS011;39156;51.176;6.738;2023-03-20T09:07:27;38.33;;;35.92;;
53267;SDS011;39156;51.176;6.738;2023-03-20T09:09:53;39.90;;;37.40;;
53267;SDS011;39156;51.176;6.738;2023-03-20T09:12:19;39.30;;;36.70;;
53267;SDS011;39156;51.176;6.738;2023-03-20T09:14:44;39.88;;;37.38;;
53267;SDS011;39156;51.176;6.738;2023-03-20T09:17:10;38.67;;;36.30;;
53267;SDS011;39156;51.176;6.738;2023-03-20T09:19:36;38.50;;;36.17;;
53267;SDS011;39156;51.176;6.738;2023-03-20T09:22:07;39.28;;;36.67;;
53267;SDS011;39156;51.176;6.738;2023-03-20T09:24:33;39.13;;;36.67;;
53267;SDS011;39156;51.176;6.738;2023-03-20T09:26:59;39.75;;;37.33;;
53267;SDS011;39156;51.176;6.738;2023-03-20T09:29:25;36.97;;;34.50;;
53267;SDS011;39156;51.176;6.738;2023-03-20T09:31:54;40.03;;;37.53;;
53267;SDS011;39156;51.176;6.738;2023-03-20T09:34:20;37.33;;;35.03;;
53267;SDS011;39156;51.176;6.738;2023-03-20T09:36:46;37.38;;;34.97;;
53267;SDS011;39156;51.176;6.738;2023-03-20T09:39:11;36.85;;;34.35;;
53267;SDS011;39156;51.176;6.738;2023-03-20T09:41:37;36.25;;;33.90;;
53267;SDS011;39156;51.176;6.738;2023-03-20T09:56:20;36.22;;;34.17;;
53267;SDS011;39156;51.176;6.738;2023-03-20T09:58:53;34.80;;;32.70;;
53267;SDS011;39156;51.176;6.738;2023-03-20T10:01:23;38.35;;;36.03;;
53267;SDS011;39156;51.176;6.738;2023-03-20T10:03:56;34.80;;;32.63;;
53267;SDS011;39156;51.176;6.738;2023-03-20T10:06:25;37.38;;;35.28;;
53267;SDS011;39156;51.176;6.738;2023-03-20T10:08:51;37.13;;;35.00;;
53267;SDS011;39156;51.176;6.738;2023-03-20T10:26:00;37.53;;;35.33;;
53267;SDS011;39156;51.176;6.738;2023-03-20T10:28:46;36.10;;;33.90;;
53267;SDS011;39156;51.176;6.738;2023-03-20T10:36:49;38.20;;;35.90;;
53267;SDS011;39156;51.176;6.738;2023-03-20T10:42:16;39.00;;;36.43;;
53267;SDS011;39156;51.176;6.738;2023-03-20T10:44:53;36.53;;;34.25;;
53267;SDS011;39156;51.176;6.738;2023-03-20T10:47:39;37.97;;;35.38;;
53267;SDS011;39156;51.176;6.738;2023-03-20T10:50:14;39.47;;;36.78;;
53267;SDS011;39156;51.176;6.738;2023-03-20T10:52:43;36.03;;;33.72;;
53267;SDS011;39156;51.176;6.738;2023-03-20T10:55:17;37.40;;;35.00;;
53267;SDS011;39156;51.176;6.738;2023-03-20T10:58:02;37.40;;;35.10;;
53267;SDS011;39156;51.176;6.738;2023-03-20T11:00:44;37.78;;;35.50;;
53267;SDS011;39156;51.176;6.738;2023-03-20T11:03:20;36.97;;;34.78;;
53267;SDS011;39156;51.176;6.738;2023-03-20T11:05:56;36.08;;;33.78;;
53267;SDS011;39156;51.176;6.738;2023-03-20T11:08:28;36.05;;;33.88;;
53267;SDS011;39156;51.176;6.738;2023-03-20T11:11:01;38.33;;;36.10;;
53267;SDS011;39156;51.176;6.738;2023-03-20T11:13:38;39.08;;;36.28;;
53267;SDS011;39156;51.176;6.738;2023-03-20T11:16:10;37.53;;;35.15;;
53267;SDS011;39156;51.176;6.738;2023-03-20T11:18:42;38.90;;;36.40;;
53267;SDS011;39156;51.176;6.738;2023-03-20T11:21:13;44.03;;;40.47;;
53267;SDS011;39156;51.176;6.738;2023-03-20T11:23:43;37.88;;;35.28;;
53267;SDS011;39156;51.176;6.738;2023-03-20T11:26:13;37.55;;;35.05;;
53267;SDS011;39156;51.176;6.738;2023-03-20T11:29:07;39.47;;;36.97;;
53267;SDS011;39156;51.176;6.738;2023-03-20T11:31:54;39.17;;;36.55;;
53267;SDS011;39156;51.176;6.738;2023-03-20T11:34:32;39.70;;;36.92;;
53267;SDS011;39156;51.176;6.738;2023-03-20T11:37:17;37.20;;;34.70;;
53267;SDS011;39156;51.176;6.738;2023-03-20T11:45:42;37.58;;;35.28;;
53267;SDS011;39156;51.176;6.738;2023-03-20T11:48:13;38.42;;;36.00;;
53267;SDS011;39156;51.176;6.738;2023-03-20T11:53:38;35.55;;;32.75;;
53267;SDS011;39156;51.176;6.738;2023-03-20T11:58:49;35.22;;;33.10;;
53267;SDS011;39156;51.176;6.738;2023-03-20T12:01:21;38.25;;;35.95;;
53267;SDS011;39156;51.176;6.738;2023-03-20T12:03:51;35.33;;;33.38;;
53267;SDS011;39156;51.176;6.738;2023-03-20T12:06:44;36.72;;;34.53;;
53267;SDS011;39156;51.176;6.738;2023-03-20T12:09:41;35.53;;;33.42;;
53267;SDS011;39156;51.176;6.738;2023-03-20T12:12:38;35.78;;;33.63;;
53267;SDS011;39156;51.176;6.738;2023-03-20T12:15:26;35.88;;;33.45;;
53267;SDS011;39156;51.176;6.738;2023-03-20T12:20:39;36.72;;;34.47;;
53267;SDS011;39156;51.176;6.738;2023-03-20T12:26:16;36.00;;;34.03;;
53267;SDS011;39156;51.176;6.738;2023-03-20T12:28:57;37.92;;;35.63;;
53267;SDS011;39156;51.176;6.738;2023-03-20T12:31:43;35.58;;;33.53;;
53267;SDS011;39156;51.176;6.738;2023-03-20T12:34:30;35.40;;;33.35;;
53267;SDS011;39156;51.176;6.738;2023-03-20T12:37:10;36.42;;;34.25;;
53267;SDS011;39156;51.176;6.738;2023-03-20T12:39:38;35.83;;;33.83;;
53267;SDS011;39156;51.176;6.738;2023-03-20T12:45:19;37.10;;;34.80;;
53267;SDS011;39156;51.176;6.738;2023-03-20T12:50:57;39.88;;;37.60;;
53267;SDS011;39156;51.176;6.738;2023-03-20T13:11:57;37.63;;;35.38;;
53267;SDS011;39156;51.176;6.738;2023-03-20T13:14:51;37.47;;;35.13;;
53267;SDS011;39156;51.176;6.738;2023-03-20T13:17:36;37.15;;;34.83;;
53267;SDS011;39156;51.176;6.738;2023-03-20T13:20:20;38.50;;;36.35;;
53267;SDS011;39156;51.176;6.738;2023-03-20T13:23:22;38.22;;;35.78;;
53267;SDS011;39156;51.176;6.738;2023-03-20T13:37:12;38.50;;;36.08;;
53267;SDS011;39156;51.176;6.738;2023-03-20T13:42:37;37.25;;;34.67;;
53267;SDS011;39156;51.176;6.738;2023-03-20T13:45:23;35.90;;;33.72;;
53267;SDS011;39156;51.176;6.738;2023-03-20T13:47:54;35.22;;;33.10;;
53267;SDS011;39156;51.176;6.738;2023-03-20T13:53:37;38.20;;;35.92;;
53267;SDS011;39156;51.176;6.738;2023-03-20T13:59:13;36.55;;;34.17;;
53267;SDS011;39156;51.176;6.738;2023-03-20T14:02:09;36.70;;;34.30;;
53267;SDS011;39156;51.176;6.738;2023-03-20T14:05:02;36.30;;;34.08;;
53267;SDS011;39156;51.176;6.738;2023-03-20T14:07:36;36.38;;;34.17;;
53267;SDS011;39156;51.176;6.738;2023-03-20T14:12:47;37.33;;;34.92;;
53267;SDS011;39156;51.176;6.738;2023-03-20T14:15:15;37.08;;;34.72;;
53267;SDS011;39156;51.176;6.738;2023-03-20T14:17:43;36.55;;;34.33;;
53267;SDS011;39156;51.176;6.738;2023-03-20T14:20:19;38.97;;;35.92;;
53267;SDS011;39156;51.176;6.738;2023-03-20T14:22:53;38.90;;;36.33;;
53267;SDS011;39156;51.176;6.738;2023-03-20T14:25:21;37.03;;;34.38;;
53267;SDS011;39156;51.176;6.738;2023-03-20T14:30:35;37.42;;;34.58;;
53267;SDS011;39156;51.176;6.738;2023-03-20T14:35:42;38.03;;;35.42;;
53267;SDS011;39156;51.176;6.738;2023-03-20T14:38:17;37.65;;;34.88;;
53267;SDS011;39156;51.176;6.738;2023-03-20T14:46:07;36.35;;;33.83;;
53267;SDS011;39156;51.176;6.738;2023-03-20T14:48:53;38.50;;;35.40;;
53267;SDS011;39156;51.176;6.738;2023-03-20T14:51:36;38.53;;;35.95;;
53267;SDS011;39156;51.176;6.738;2023-03-20T14:54:25;37.67;;;35.25;;
53267;SDS011;39156;51.176;6.738;2023-03-20T14:56:54;37.63;;;35.05;;
53267;SDS011;39156;51.176;6.738;2023-03-20T14:59:33;38.05;;;34.72;;
53267;SDS011;39156;51.176;6.738;2023-03-20T15:02:00;37.55;;;35.33;;
53267;SDS011;39156;51.176;6.738;2023-03-20T15:09:53;37.53;;;34.72;;
53267;SDS011;39156;51.176;6.738;2023-03-20T15:12:24;37.08;;;34.80;;
53267;SDS011;39156;51.176;6.738;2023-03-20T15:14:56;39.55;;;37.22;;
53267;SDS011;39156;51.176;6.738;2023-03-20T15:17:25;37.78;;;35.08;;
53267;SDS011;39156;51.176;6.738;2023-03-20T15:22:49;36.92;;;34.58;;
53267;SDS011;39156;51.176;6.738;2023-03-20T15:25:21;36.90;;;34.30;;
53267;SDS011;39156;51.176;6.738;2023-03-20T15:28:01;39.88;;;37.25;;
53267;SDS011;39156;51.176;6.738;2023-03-20T15:30:35;37.92;;;35.13;;
53267;SDS011;39156;51.176;6.738;2023-03-20T15:33:02;35.63;;;33.45;;
53267;SDS011;39156;51.176;6.738;2023-03-20T15:35:28;36.90;;;34.00;;
53267;SDS011;39156;51.176;6.738;2023-03-20T15:37:55;36.83;;;34.72;;
53267;SDS011;39156;51.176;6.738;2023-03-20T15:40:29;35.63;;;33.50;;
53267;SDS011;39156;51.176;6.738;2023-03-20T15:43:04;37.28;;;34.97;;
53267;SDS011;39156;51.176;6.738;2023-03-20T15:45:48;35.88;;;33.75;;
53267;SDS011;39156;51.176;6.738;2023-03-20T15:48:19;35.75;;;33.50;;
53267;SDS011;39156;51.176;6.738;2023-03-20T15:50:51;36.47;;;34.30;;
53267;SDS011;39156;51.176;6.738;2023-03-20T15:53:23;36.42;;;33.97;;
53267;SDS011;39156;51.176;6.738;2023-03-20T15:58:29;36.65;;;34.05;;
53267;SDS011;39156;51.176;6.738;2023-03-20T16:00:56;38.03;;;35.53;;
53267;SDS011;39156;51.176;6.738;2023-03-20T16:03:24;34.88;;;32.67;;
53267;SDS011;39156;51.176;6.738;2023-03-20T16:05:52;38.03;;;35.63;;
53267;SDS011;39156;51.176;6.738;2023-03-20T16:10:56;36.58;;;34.38;;
53267;SDS011;39156;51.176;6.738;2023-03-20T16:13:38;39.28;;;36.70;;
53267;SDS011;39156;51.176;6.738;2023-03-20T16:16:14;38.13;;;35.92;;
53267;SDS011;39156;51.176;6.738;2023-03-20T16:18:47;37.00;;;34.47;;
53267;SDS011;39156;51.176;6.738;2023-03-20T16:21:35;37.40;;;34.95;;
53267;SDS011;39156;51.176;6.738;2023-03-20T16:24:13;35.05;;;32.97;;
53267;SDS011;39156;51.176;6.738;2023-03-20T16:26:51;35.00;;;32.72;;
53267;SDS011;39156;51.176;6.738;2023-03-20T16:29:18;34.88;;;32.88;;
53267;SDS011;39156;51.176;6.738;2023-03-20T16:34:24;37.17;;;34.72;;
53267;SDS011;39156;51.176;6.738;2023-03-20T16:36:57;37.45;;;35.10;;
53267;SDS011;39156;51.176;6.738;2023-03-20T16:39:27;37.00;;;34.58;;
53267;SDS011;39156;51.176;6.738;2023-03-20T16:42:40;36.22;;;33.63;;
53267;SDS011;39156;51.176;6.738;2023-03-20T16:44:52;36.10;;;33.85;;
53267;SDS011;39156;51.176;6.738;2023-03-20T16:47:42;36.67;;;34.35;;
53267;SDS011;39156;51.176;6.738;2023-03-20T16:50:17;37.05;;;34.70;;
53267;SDS011;39156;51.176;6.738;2023-03-20T16:52:51;36.97;;;34.58;;
53267;SDS011;39156;51.176;6.738;2023-03-20T16:55:24;37.25;;;35.05;;
53267;SDS011;39156;51.176;6.738;2023-03-20T16:58:00;37.45;;;35.13;;
53267;SDS011;39156;51.176;6.738;2023-03-20T17:00:31;39.28;;;36.92;;
53267;SDS011;39156;51.176;6.738;2023-03-20T17:03:16;38.58;;;36.13;;
53267;SDS011;39156;51.176;6.738;2023-03-20T17:05:52;38.50;;;36.15;;
53267;SDS011;39156;51.176;6.738;2023-03-20T17:08:41;39.58;;;36.90;;
53267;SDS011;39156;51.176;6.738;2023-03-20T17:11:26;37.65;;;35.33;;
53267;SDS011;39156;51.176;6.738;2023-03-20T17:13:56;40.10;;;37.42;;
53267;SDS011;39156;51.176;6.738;2023-03-20T17:16:23;37.88;;;35.35;;
53267;SDS011;39156;51.176;6.738;2023-03-20T17:19:00;37.40;;;35.10;;
53267;SDS011;39156;51.176;6.738;2023-03-20T17:21:30;38.63;;;36.17;;
53267;SDS011;39156;51.176;6.738;2023-03-20T17:23:56;35.85;;;33.60;;
53267;SDS011;39156;51.176;6.738;2023-03-20T17:26:22;37.93;;;35.43;;
53267;SDS011;39156;51.176;6.738;2023-03-20T17:28:48;36.33;;;34.22;;
53267;SDS011;39156;51.176;6.738;2023-03-20T17:31:15;37.17;;;34.97;;
53267;SDS011;39156;51.176;6.738;2023-03-20T17:33:42;38.25;;;35.60;;
53267;SDS011;39156;51.176;6.738;2023-03-20T17:36:13;35.67;;;33.53;;
53267;SDS011;39156;51.176;6.738;2023-03-20T17:38:43;36.95;;;34.63;;